PWSweather.com
Personal Weather Stations
Station Observations
948974
Valtournenche, AostaIT 11028

ValtournencheAostaIT 11028

Lat: 45.877222, Lon: 7.625556

Elevation: 5085.3018

Station Type: PCE-FWS 20

http://www.cdso.it

High Low Average
Temperature 70.6°F21.4°C 55.9°F13.3°C 61.4°F16.3°C
Dew Point 60.4°F15.8°C 55.4°F13.0°C 57.8°F14.3°C
Winds 6.0 mph 9.7 kmh Calm Calm 2.0 mph ESE3.2 kmh ESE
Wind Gusts 11.0 mph17.7 kmh -- 4.0 mph6.4 kmh
Humidity 99% 64% 89%
Pressure 30.10 in1019.3 mb 29.93 in1013.5 mb -
Precipitation 0.30 in7.6 mm - -
Hour Temp Dew Point Humidity Winds Wind Gusts Pressure Precip Precip Rate Daily Precip Total
12:18 AM -- -- - - N N -- -- 0.00 in0.0 mm 0.00 in0.0 mm 0.00 in0.0 mm
12:39 AM -- -- - - N N -- -- 0.00 in0.0 mm 0.00 in0.0 mm 0.00 in0.0 mm
01:00 AM 58.5°F14.7°C 56.7°F13.7°C 94% 2.0 mph 3.2 kmh 3.0 mph4.8 kmh 30.04 in1017.3 mb 0.00 in0.0 mm 0.00 in0.0 mm 0.00 in0.0 mm
01:21 AM 58.3°F14.6°C 56.6°F13.7°C 94% 1.0 mph 1.6 kmh 2.0 mph3.2 kmh 30.04 in1017.3 mb 0.00 in0.0 mm 0.00 in0.0 mm 0.00 in0.0 mm
01:42 AM -- -- - - N N -- -- 0.00 in0.0 mm 0.00 in0.0 mm 0.00 in0.0 mm
02:03 AM -- -- - - N N -- -- 0.00 in0.0 mm 0.00 in0.0 mm 0.00 in0.0 mm
02:24 AM -- -- - - N N -- -- 0.00 in0.0 mm 0.00 in0.0 mm 0.00 in0.0 mm
02:45 AM -- -- - - N N -- -- 0.00 in0.0 mm 0.00 in0.0 mm 0.00 in0.0 mm
03:06 AM -- -- - - N N -- -- 0.00 in0.0 mm 0.00 in0.0 mm 0.00 in0.0 mm
03:27 AM 57.2°F14.0°C 56.1°F13.4°C 96% Calm Calm 1.0 mph1.6 kmh 30.03 in1016.9 mb 0.02 in0.5 mm 0.06 in1.5 mm 0.02 in0.5 mm
03:48 AM 55.9°F13.3°C 55.4°F13.0°C 98% 1.0 mph 1.6 kmh 2.0 mph3.2 kmh 30.04 in1017.3 mb 0.04 in1.0 mm 0.06 in1.5 mm 0.04 in1.0 mm
04:09 AM 56.7°F13.7°C 56.4°F13.6°C 99% 3.0 mph 4.8 kmh 4.0 mph6.4 kmh 30.03 in1016.9 mb 0.04 in1.0 mm 0.00 in0.0 mm 0.04 in1.0 mm
04:30 AM 56.7°F13.7°C 56.4°F13.6°C 99% 6.0 mph 9.7 kmh 11.0 mph17.7 kmh 30.01 in1016.3 mb 0.02 in0.5 mm 0.00 in0.0 mm 0.05 in1.3 mm
04:51 AM 56.7°F13.7°C 56.4°F13.6°C 99% 3.0 mph 4.8 kmh 4.0 mph6.4 kmh 30.06 in1017.9 mb 0.02 in0.5 mm 0.00 in0.0 mm 0.06 in1.5 mm
05:12 AM 56.7°F13.7°C 56.4°F13.6°C 99% 1.0 mph 1.6 kmh 2.0 mph3.2 kmh 30.03 in1016.9 mb 0.02 in0.5 mm 0.00 in0.0 mm 0.06 in1.5 mm
05:33 AM 56.7°F13.7°C 56.4°F13.6°C 99% Calm Calm -- 30.04 in1017.3 mb 0.01 in0.3 mm 0.00 in0.0 mm 0.06 in1.5 mm
05:54 AM 56.3°F13.5°C 56.0°F13.3°C 99% 1.0 mph 1.6 kmh 2.0 mph3.2 kmh 30.05 in1017.6 mb 0.01 in0.3 mm 0.00 in0.0 mm 0.07 in1.8 mm
06:15 AM 56.1°F13.4°C 55.8°F13.2°C 99% 1.0 mph 1.6 kmh 2.0 mph3.2 kmh 30.05 in1017.6 mb 0.02 in0.5 mm 0.02 in0.5 mm 0.08 in2.0 mm
06:36 AM 56.7°F13.7°C 56.4°F13.6°C 99% 2.0 mph 3.2 kmh 3.0 mph4.8 kmh 30.05 in1017.6 mb 0.02 in0.5 mm 0.00 in0.0 mm 0.08 in2.0 mm
06:57 AM 57.2°F14.0°C 56.9°F13.8°C 99% 1.0 mph 1.6 kmh 2.0 mph3.2 kmh 30.05 in1017.6 mb 0.01 in0.3 mm 0.00 in0.0 mm 0.08 in2.0 mm
07:18 AM 57.2°F14.0°C 56.9°F13.8°C 99% 2.0 mph 3.2 kmh 3.0 mph4.8 kmh 30.07 in1018.3 mb 0.01 in0.3 mm 0.00 in0.0 mm 0.09 in2.3 mm
07:39 AM 56.7°F13.7°C 56.4°F13.6°C 99% 2.0 mph 3.2 kmh 2.0 mph3.2 kmh 30.10 in1019.3 mb 0.05 in1.3 mm 0.11 in2.8 mm 0.13 in3.3 mm
08:03 AM 56.3°F13.5°C 56.0°F13.3°C 99% 5.0 mph NE8.0 kmh NE 9.0 mph14.5 kmh 30.10 in1019.3 mb 0.08 in2.0 mm 0.05 in1.3 mm 0.17 in4.3 mm
08:21 AM 56.6°F13.7°C 55.8°F13.2°C 97% 3.0 mph ENE4.8 kmh ENE 4.0 mph6.4 kmh 30.05 in1017.6 mb 0.07 in1.8 mm 0.00 in0.0 mm 0.17 in4.3 mm
08:42 AM 57.5°F14.2°C 56.0°F13.3°C 95% 3.0 mph E4.8 kmh E 6.0 mph9.7 kmh 30.05 in1017.6 mb 0.04 in1.0 mm 0.00 in0.0 mm 0.17 in4.3 mm
09:03 AM 59.7°F15.4°C 57.1°F13.9°C 91% 1.0 mph ESE1.6 kmh ESE 2.0 mph3.2 kmh 30.03 in1016.9 mb 0.00 in0.0 mm 0.00 in0.0 mm 0.17 in4.3 mm
09:42 AM 60.7°F15.9°C 57.1°F13.9°C 88% 3.0 mph S4.8 kmh S 7.0 mph11.3 kmh 30.03 in1016.9 mb 0.00 in0.0 mm 0.00 in0.0 mm 0.17 in4.3 mm
10:03 AM 61.2°F16.2°C 56.5°F13.6°C 85% 2.0 mph S3.2 kmh S 4.0 mph6.4 kmh 30.03 in1016.9 mb 0.00 in0.0 mm 0.00 in0.0 mm 0.17 in4.3 mm
10:21 AM 61.1°F16.2°C 56.0°F13.3°C 83% Calm Calm 2.0 mph3.2 kmh 30.04 in1017.3 mb 0.00 in0.0 mm 0.00 in0.0 mm 0.17 in4.3 mm
10:42 AM 61.8°F16.6°C 56.1°F13.4°C 82% 1.0 mph S1.6 kmh S 4.0 mph6.4 kmh 30.03 in1016.9 mb 0.00 in0.0 mm 0.00 in0.0 mm 0.17 in4.3 mm
11:03 AM 62.3°F16.8°C 55.8°F13.2°C 79% 4.0 mph E6.4 kmh E 6.0 mph9.7 kmh 30.02 in1016.6 mb 0.00 in0.0 mm 0.00 in0.0 mm 0.17 in4.3 mm
11:21 AM 63.5°F17.5°C 55.9°F13.3°C 76% 2.0 mph E3.2 kmh E 4.0 mph6.4 kmh 30.01 in1016.3 mb 0.00 in0.0 mm 0.00 in0.0 mm 0.17 in4.3 mm
11:42 AM 63.7°F17.6°C 57.7°F14.3°C 81% 3.0 mph E4.8 kmh E 6.0 mph9.7 kmh 30.01 in1016.3 mb 0.00 in0.0 mm 0.00 in0.0 mm 0.17 in4.3 mm
12:03 PM 64.6°F18.1°C 57.5°F14.2°C 78% 3.0 mph E4.8 kmh E 5.0 mph8.0 kmh 30.00 in1015.9 mb 0.00 in0.0 mm 0.00 in0.0 mm 0.17 in4.3 mm
12:21 PM 69.0°F20.6°C 56.1°F13.4°C 64% 3.0 mph E4.8 kmh E 7.0 mph11.3 kmh 29.95 in1014.2 mb 0.00 in0.0 mm 0.00 in0.0 mm 0.17 in4.3 mm
12:42 PM 68.0°F20.0°C 56.2°F13.4°C 66% 4.0 mph E6.4 kmh E 7.0 mph11.3 kmh 29.96 in1014.6 mb 0.00 in0.0 mm 0.00 in0.0 mm 0.17 in4.3 mm
01:03 PM 63.4°F17.4°C 56.7°F13.7°C 79% 4.0 mph E6.4 kmh E 8.0 mph12.9 kmh 30.03 in1016.9 mb 0.07 in1.8 mm 0.11 in2.8 mm 0.24 in6.1 mm
01:21 PM 60.1°F15.6°C 58.0°F14.4°C 93% 2.0 mph SE3.2 kmh SE 6.0 mph9.7 kmh 30.09 in1019.0 mb 0.13 in3.3 mm 0.20 in5.1 mm 0.30 in7.6 mm
01:42 PM 62.7°F17.1°C 58.9°F14.9°C 88% 2.0 mph SE3.2 kmh SE 4.0 mph6.4 kmh 30.05 in1017.6 mb 0.13 in3.3 mm 0.00 in0.0 mm 0.30 in7.6 mm
02:03 PM 67.7°F19.8°C 58.8°F14.9°C 73% 2.0 mph SE3.2 kmh SE 4.0 mph6.4 kmh 29.98 in1015.2 mb 0.06 in1.5 mm 0.00 in0.0 mm 0.30 in7.6 mm
02:21 PM 68.9°F20.5°C 60.4°F15.8°C 74% 3.0 mph SE4.8 kmh SE 5.0 mph8.0 kmh 29.96 in1014.6 mb 0.00 in0.0 mm 0.00 in0.0 mm 0.30 in7.6 mm
02:42 PM 68.7°F20.4°C 57.9°F14.4°C 68% 6.0 mph S9.7 kmh S 10.0 mph16.1 kmh 29.96 in1014.6 mb 0.00 in0.0 mm 0.00 in0.0 mm 0.30 in7.6 mm
03:03 PM 67.7°F19.8°C 59.7°F15.4°C 75% 4.0 mph S6.4 kmh S 8.0 mph12.9 kmh 29.97 in1014.9 mb 0.00 in0.0 mm 0.00 in0.0 mm 0.30 in7.6 mm
03:21 PM 69.4°F20.8°C 58.7°F14.8°C 69% 4.0 mph S6.4 kmh S 8.0 mph12.9 kmh 29.95 in1014.2 mb 0.00 in0.0 mm 0.00 in0.0 mm 0.30 in7.6 mm
03:42 PM 68.0°F20.0°C 59.5°F15.3°C 74% 3.0 mph S4.8 kmh S 6.0 mph9.7 kmh 29.96 in1014.6 mb 0.00 in0.0 mm 0.00 in0.0 mm 0.30 in7.6 mm
04:03 PM 67.9°F19.9°C 58.7°F14.8°C 72% 2.0 mph S3.2 kmh S 5.0 mph8.0 kmh 29.96 in1014.6 mb 0.00 in0.0 mm 0.00 in0.0 mm 0.30 in7.6 mm
04:21 PM 69.4°F20.8°C 58.6°F14.8°C 69% 2.0 mph S3.2 kmh S 5.0 mph8.0 kmh 29.94 in1013.9 mb 0.00 in0.0 mm 0.00 in0.0 mm 0.30 in7.6 mm
04:42 PM 70.6°F21.4°C 59.4°F15.2°C 68% 3.0 mph S4.8 kmh S 4.0 mph6.4 kmh 29.93 in1013.5 mb 0.00 in0.0 mm 0.00 in0.0 mm 0.30 in7.6 mm
05:21 PM 65.5°F18.6°C 58.9°F14.9°C 80% 4.0 mph S6.4 kmh S 9.0 mph14.5 kmh 29.98 in1015.2 mb 0.00 in0.0 mm 0.00 in0.0 mm 0.30 in7.6 mm
05:42 PM 65.3°F18.5°C 59.9°F15.5°C 83% 1.0 mph S1.6 kmh S 3.0 mph4.8 kmh 29.98 in1015.2 mb 0.00 in0.0 mm 0.00 in0.0 mm 0.30 in7.6 mm
06:03 PM 64.3°F17.9°C 59.4°F15.2°C 84% 2.0 mph S3.2 kmh S 4.0 mph6.4 kmh 29.99 in1015.6 mb 0.00 in0.0 mm 0.00 in0.0 mm 0.30 in7.6 mm
06:21 PM 63.3°F17.4°C 59.6°F15.3°C 88% 2.0 mph S3.2 kmh S 7.0 mph11.3 kmh 30.01 in1016.3 mb 0.00 in0.0 mm 0.00 in0.0 mm 0.30 in7.6 mm
06:42 PM 62.8°F17.1°C 60.2°F15.7°C 91% 2.0 mph S3.2 kmh S 4.0 mph6.4 kmh 30.02 in1016.6 mb 0.00 in0.0 mm 0.00 in0.0 mm 0.30 in7.6 mm
07:03 PM 62.3°F16.8°C 60.0°F15.6°C 92% Calm Calm 2.0 mph3.2 kmh 30.03 in1016.9 mb 0.00 in0.0 mm 0.00 in0.0 mm 0.30 in7.6 mm
07:21 PM 61.9°F16.6°C 60.1°F15.6°C 94% 3.0 mph S4.8 kmh S 5.0 mph8.0 kmh 30.03 in1016.9 mb 0.00 in0.0 mm 0.00 in0.0 mm 0.30 in7.6 mm
07:42 PM 60.7°F15.9°C 60.2°F15.7°C 98% 1.0 mph S1.6 kmh S 4.0 mph6.4 kmh 30.05 in1017.6 mb 0.00 in0.0 mm 0.00 in0.0 mm 0.30 in7.6 mm
08:03 PM 60.4°F15.8°C 60.1°F15.6°C 99% Calm Calm 2.0 mph3.2 kmh 30.06 in1017.9 mb 0.00 in0.0 mm 0.00 in0.0 mm 0.30 in7.6 mm
08:21 PM 60.2°F15.7°C 59.9°F15.5°C 99% 1.0 mph S1.6 kmh S 4.0 mph6.4 kmh 30.06 in1017.9 mb 0.00 in0.0 mm 0.00 in0.0 mm 0.30 in7.6 mm
08:42 PM 59.8°F15.4°C 59.5°F15.3°C 99% 2.0 mph S3.2 kmh S 6.0 mph9.7 kmh 30.08 in1018.6 mb 0.00 in0.0 mm 0.00 in0.0 mm 0.30 in7.6 mm
09:03 PM 59.4°F15.2°C 59.1°F15.1°C 99% Calm Calm 2.0 mph3.2 kmh 30.09 in1019.0 mb 0.00 in0.0 mm 0.00 in0.0 mm 0.30 in7.6 mm
09:21 PM 59.5°F15.3°C 59.3°F15.2°C 99% 2.0 mph S3.2 kmh S 4.0 mph6.4 kmh 30.09 in1019.0 mb 0.00 in0.0 mm 0.00 in0.0 mm 0.30 in7.6 mm
09:42 PM 59.3°F15.2°C 59.0°F15.0°C 99% 1.0 mph S1.6 kmh S 2.0 mph3.2 kmh 30.09 in1019.0 mb 0.00 in0.0 mm 0.00 in0.0 mm 0.30 in7.6 mm
10:03 PM 59.3°F15.2°C 59.0°F15.0°C 99% Calm Calm 2.0 mph3.2 kmh 30.09 in1019.0 mb 0.00 in0.0 mm 0.00 in0.0 mm 0.30 in7.6 mm
10:21 PM 59.2°F15.1°C 58.9°F14.9°C 99% 1.0 mph S1.6 kmh S 2.0 mph3.2 kmh 30.09 in1019.0 mb 0.00 in0.0 mm 0.00 in0.0 mm 0.30 in7.6 mm
10:42 PM 58.7°F14.8°C 58.5°F14.7°C 99% 1.0 mph S1.6 kmh S 3.0 mph4.8 kmh 30.10 in1019.3 mb 0.00 in0.0 mm 0.00 in0.0 mm 0.30 in7.6 mm
11:21 PM 58.7°F14.8°C 58.4°F14.7°C 99% 1.0 mph S1.6 kmh S 3.0 mph4.8 kmh 30.10 in1019.3 mb 0.00 in0.0 mm 0.00 in0.0 mm 0.25 in6.4 mm
11:42 PM 58.6°F14.8°C 58.3°F14.6°C 99% 1.0 mph S1.6 kmh S 4.0 mph6.4 kmh 30.10 in1019.3 mb 0.00 in0.0 mm 0.00 in0.0 mm 0.25 in6.4 mm